Madera, Pennsylvania
Current Conditions -  °F | °C
As of 4:54 PM on Thursday 18 Dec 2014 (Local Time) from KFIG Reporting Station
Overcast Overcast  
Wind Chill: -8°   Ceiling: 1600
Heat Index: -2°   Visibility: 10mi
Dew Point: -5°   Wind: 16mph
Humidity: 78%   Direction: 290°WNW
Pressure: 30.08"   Gusts: 21mph
Location:  40.83°N, 78.43°W
Report Text: KFIG 182154Z AUTO 29014G18KT 10SM OVC016 M02/M05 A3008 RMK AO2 SLP204 T10171050
Loading
Personal Weather Stations






























Interactive Weather Map New forecast layout! Learn more

10-Day Weather Forecast

Advertisements
Track Severe Weather on mobile